Impacts TAF Board INFO
FOR SITUATIONAL AWARENESS. NOT TO BE USED FOR FLIGHT PLANNING PURPOSES.
IDs:

KMSP - Minneapolis-St Paul, MN, US

Issued at 1556 UTC 11 Dec 2017
Updated at 1710 UTC 11 Dec 2017
Potential Impact None Slight Moderate High
Time1704Z 11/18Z 11/19Z 11/20Z 11/21Z 11/22Z 11/23Z 12/00Z 12/01Z 12/02Z 12/03Z 12/04Z 12/05Z 12/06Z>>
Type OBS PRVL
  [TEMP]  
PRVL PRVL PRVL PRVL PRVL PRVL PRVL PRVL PRVL PRVL PRVL PRVL
VIS 8 6
  [2]  
>6 >6 >6 >6 >6 >6 >6 >6 >6 >6 >6 >6
CIG 14 25
  [15]  
28 28 28 28 28 -- -- -- -- -- -- --
Cover OVC OVC
  [OVC]  
BKN BKN BKN BKN BKN FEW FEW FEW FEW FEW SKC SKC
FltCat MVFR MVFR
  [IFR]  
MVFR MVFR MVFR MVFR MVFR VFR VFR VFR VFR VFR VFR VFR
WX -- -SHSN BR
  [-SHSN BR]  
-- -- -- -- -- -- -- -- -- -- -- --
WDir 340 320
[320]
330 330 330 330 330 320 320 320 320 320 310 310
WSpd 13 11
  [11]  
19 19 19 19 19 17 17 17 17 17 12 12
WGst -- --
  [--]  
32 32 32 32 32 28 28 28 28 28 18 18

Raw TAF
KMSP 111556Z 1116/1218 32011KT 6SM -SHSN BR BKN025 OVC040
  TEMPO 1117/1119 2SM -SHSN BR BKN015 OVC025
  FM111900 33019G32KT P6SM BKN028
  FM120000 32017G28KT P6SM FEW030
  FM120500 31012G18KT P6SM SKC


Raw METAR
KMSP 111704Z 34013KT 8SM BKN014 OVC030 01/M01 A2977 RMK AO2 T00111006
KMSP 111653Z 34013KT 8SM SCT014 BKN024 OVC030 01/00 A2977 RMK AO2 SNB14E30 SLP092 P0001 T00110000
KMSP 111553Z 30005KT 7SM BKN018 OVC026 01/00 A2975 RMK AO2 SLP083 T00060000
KMSP 111453Z 00000KT 5SM BR OVC027 M01/M01 A2972 RMK AO2 SLP074 FZRAB36E45PLB16E29B36E45SNE09B25E36 P0002 60009 I1000 I3000 T10061011 56006
KMSP 111445Z 00000KT 5SM BR BKN029 OVC035 M01/M01 A2972 RMK AO2 FZRAB36E45PLB16E29B36E45SNE09B25E36 P0002 I1000 T10061006
KMSP 111437Z 20003KT 5SM -FZRAPL BR SCT029 OVC035 M01/M01 A2972 RMK AO2 FZRAB36PLB16E29B36SNE09B25E36 P0002 I1000 T10061006

METAR Board
Radar Display
Forecast Discussion

FOR SITUATIONAL AWARENESS. NOT TO BE USED FOR FLIGHT PLANNING PURPOSES.